createdAt,value
2019-03-31T00:02:03.277Z,33.80
2019-03-31T00:04:34.886Z,34.53
2019-03-31T00:07:06.850Z,34.40
2019-03-31T00:09:38.465Z,40.10
2019-03-31T00:12:10.024Z,36.03
2019-03-31T00:14:41.929Z,35.67
2019-03-31T00:17:14.149Z,43.23
2019-03-31T00:19:45.733Z,38.87
2019-03-31T00:22:17.395Z,40.97
2019-03-31T00:24:48.933Z,43.27
2019-03-31T00:27:20.481Z,37.87
2019-03-31T00:29:53.125Z,38.83
2019-03-31T00:32:25.164Z,38.87
2019-03-31T00:34:56.727Z,38.33
2019-03-31T00:37:28.249Z,43.53
2019-03-31T00:39:59.805Z,37.27
2019-03-31T00:42:31.367Z,40.40
2019-03-31T00:45:03.327Z,40.47
2019-03-31T00:47:35.861Z,42.73
2019-03-31T00:50:07.758Z,41.40
2019-03-31T00:52:40.035Z,41.20
2019-03-31T00:55:11.994Z,37.67
2019-03-31T00:57:43.960Z,39.90
2019-03-31T01:00:36.969Z,38.77
2019-03-31T01:03:10.274Z,42.07
2019-03-31T01:05:43.001Z,39.87
2019-03-31T01:08:15.622Z,43.00
2019-03-31T01:10:48.161Z,43.90
2019-03-31T01:13:20.659Z,42.73
2019-03-31T01:15:54.004Z,47.33
2019-03-31T01:18:25.973Z,39.93
2019-03-31T01:20:58.135Z,40.83
2019-03-31T01:23:29.985Z,43.50
2019-03-31T01:26:01.648Z,45.40
2019-03-31T01:28:33.187Z,46.27
2019-03-31T01:31:05.156Z,42.40
2019-03-31T01:33:37.486Z,43.67
2019-03-31T01:36:09.427Z,47.10
2019-03-31T01:38:40.927Z,47.77
2019-03-31T01:41:13.553Z,53.73
2019-03-31T01:43:45.116Z,51.53
2019-03-31T01:46:19.612Z,48.33
2019-03-31T01:48:51.141Z,54.77
2019-03-31T01:51:22.664Z,55.53
2019-03-31T01:53:54.266Z,55.00
2019-03-31T01:56:25.857Z,62.37
2019-03-31T01:58:57.882Z,63.60
2019-03-31T02:01:29.524Z,61.63
2019-03-31T02:04:01.100Z,62.03
2019-03-31T02:06:32.580Z,60.90
2019-03-31T02:09:07.577Z,60.40
2019-03-31T02:11:39.166Z,58.53
2019-03-31T02:14:10.744Z,62.90
2019-03-31T02:16:42.461Z,64.73
2019-03-31T02:19:14.482Z,64.67
2019-03-31T02:21:45.986Z,67.37
2019-03-31T02:24:17.562Z,64.00
2019-03-31T02:26:49.220Z,69.77
2019-03-31T02:29:21.132Z,64.33
2019-03-31T02:31:52.766Z,66.33
2019-03-31T02:34:24.325Z,70.23
2019-03-31T02:36:55.857Z,66.87
2019-03-31T02:39:27.573Z,66.93
2019-03-31T02:41:59.454Z,67.27
2019-03-31T02:44:31.096Z,68.63
2019-03-31T02:47:02.658Z,63.00
2019-03-31T02:49:34.600Z,65.23
2019-03-31T02:52:06.115Z,60.20
2019-03-31T02:54:37.668Z,56.33
2019-03-31T02:57:09.803Z,61.27
2019-03-31T02:59:44.123Z,61.67
2019-03-31T03:02:16.596Z,58.97
2019-03-31T03:04:49.449Z,60.90
2019-03-31T03:07:22.179Z,58.27
2019-03-31T03:09:54.506Z,63.43
2019-03-31T03:12:28.400Z,60.03
2019-03-31T03:15:02.592Z,66.63
2019-03-31T03:17:35.492Z,64.60
2019-03-31T03:20:07.107Z,63.53
2019-03-31T03:22:38.833Z,59.33
2019-03-31T03:25:10.437Z,64.27
2019-03-31T03:27:42.359Z,64.13
2019-03-31T03:30:14.715Z,63.37
2019-03-31T03:33:11.955Z,72.30
2019-03-31T03:35:21.289Z,62.73
2019-03-31T03:37:53.699Z,65.63
2019-03-31T03:40:25.819Z,65.63
2019-03-31T03:42:57.599Z,64.77
2019-03-31T03:45:29.169Z,65.60
2019-03-31T03:48:00.744Z,66.00
2019-03-31T03:50:32.467Z,66.37
2019-03-31T03:53:04.129Z,64.23
2019-03-31T03:55:35.881Z,65.23
2019-03-31T03:58:07.630Z,67.90
2019-03-31T04:00:40.288Z,69.33
2019-03-31T04:03:29.033Z,66.60
2019-03-31T04:05:46.003Z,65.77
2019-03-31T04:08:18.713Z,65.20
2019-03-31T04:11:10.286Z,72.67
2019-03-31T04:13:41.966Z,81.60
2019-03-31T04:16:13.585Z,74.57
2019-03-31T04:18:45.103Z,73.10
2019-03-31T04:21:18.161Z,79.57
2019-03-31T04:23:50.080Z,74.37
2019-03-31T04:26:22.118Z,80.17
2019-03-31T04:28:53.717Z,72.03
2019-03-31T04:31:25.280Z,80.67
2019-03-31T04:33:57.241Z,79.47
2019-03-31T04:36:29.205Z,84.20
2019-03-31T04:39:01.000Z,81.20
2019-03-31T04:41:34.259Z,81.30
2019-03-31T04:44:05.761Z,78.97
2019-03-31T04:46:37.381Z,83.30
2019-03-31T04:49:09.670Z,76.80
2019-03-31T04:51:41.247Z,81.03
2019-03-31T04:54:13.211Z,75.80
2019-03-31T04:56:45.472Z,73.23
2019-03-31T04:59:17.088Z,81.03
2019-03-31T05:01:48.657Z,82.40
2019-03-31T05:04:20.643Z,83.47
2019-03-31T05:06:52.269Z,78.80
2019-03-31T05:09:24.221Z,83.60
2019-03-31T05:11:55.719Z,77.40
2019-03-31T05:14:27.291Z,83.37
2019-03-31T05:16:58.863Z,77.67
2019-03-31T05:19:30.370Z,78.23
2019-03-31T05:22:03.758Z,72.20
2019-03-31T05:24:36.238Z,74.87
2019-03-31T05:27:07.858Z,84.70
2019-03-31T05:29:39.470Z,72.20
2019-03-31T05:32:11.067Z,75.40
2019-03-31T05:34:42.604Z,69.67
2019-03-31T05:37:14.172Z,69.57
2019-03-31T05:39:45.688Z,70.87
2019-03-31T05:42:17.706Z,68.80
2019-03-31T05:44:49.902Z,70.03
2019-03-31T05:47:21.426Z,72.13
2019-03-31T05:49:53.390Z,74.00
2019-03-31T05:52:24.890Z,76.93
2019-03-31T05:54:56.417Z,78.93
2019-03-31T05:57:28.008Z,79.13
2019-03-31T05:59:59.798Z,77.50
2019-03-31T06:02:31.940Z,81.67
2019-03-31T06:05:03.845Z,81.43
2019-03-31T06:07:35.406Z,77.73
2019-03-31T06:10:07.773Z,78.33
2019-03-31T06:12:39.362Z,77.30
2019-03-31T06:15:11.228Z,74.47
2019-03-31T06:17:42.805Z,76.37
2019-03-31T06:20:14.434Z,69.80
2019-03-31T06:22:46.028Z,74.30
2019-03-31T06:25:17.631Z,74.90
2019-03-31T06:27:49.258Z,78.00
2019-03-31T06:30:21.879Z,71.63
2019-03-31T06:32:55.442Z,76.57
2019-03-31T06:35:27.022Z,78.23
2019-03-31T06:37:58.866Z,73.50
2019-03-31T06:40:30.460Z,76.33
2019-03-31T06:43:02.329Z,76.80
2019-03-31T06:45:33.877Z,78.73
2019-03-31T06:48:05.436Z,78.60
2019-03-31T06:50:37.295Z,74.87
2019-03-31T06:53:08.861Z,82.83
2019-03-31T06:55:41.209Z,77.40
2019-03-31T06:58:13.093Z,81.87
2019-03-31T07:00:44.600Z,83.13
2019-03-31T07:03:16.590Z,84.27
2019-03-31T07:05:48.151Z,81.80
2019-03-31T07:08:20.073Z,85.53
2019-03-31T07:10:51.954Z,89.53
2019-03-31T07:13:23.429Z,85.27
2019-03-31T07:15:55.370Z,87.57
2019-03-31T07:18:26.883Z,84.97
2019-03-31T07:20:58.412Z,86.53
2019-03-31T07:23:30.007Z,90.43
2019-03-31T07:26:01.540Z,89.20
2019-03-31T07:28:34.179Z,86.10
2019-03-31T07:31:05.741Z,83.20
2019-03-31T07:33:37.634Z,83.20
2019-03-31T07:36:09.189Z,85.40
2019-03-31T07:38:40.911Z,84.50
2019-03-31T07:41:13.496Z,88.33
2019-03-31T07:43:46.584Z,80.97
2019-03-31T07:46:18.181Z,82.60
2019-03-31T07:48:50.366Z,81.73
2019-03-31T07:51:21.916Z,79.23
2019-03-31T07:53:53.840Z,80.97
2019-03-31T07:56:25.794Z,85.00
2019-03-31T07:58:57.727Z,87.07
2019-03-31T08:01:29.649Z,80.90
2019-03-31T08:04:01.616Z,86.40
2019-03-31T08:06:33.170Z,79.63
2019-03-31T08:09:07.403Z,80.30
2019-03-31T08:11:39.356Z,77.00
2019-03-31T08:14:10.908Z,80.33
2019-03-31T08:16:42.758Z,77.07
2019-03-31T08:19:15.106Z,74.60
2019-03-31T08:21:46.824Z,69.97
2019-03-31T08:24:18.812Z,70.73
2019-03-31T08:26:50.358Z,68.67
2019-03-31T08:29:22.380Z,64.07
2019-03-31T08:31:54.078Z,69.00
2019-03-31T08:34:27.147Z,72.73
2019-03-31T08:36:59.155Z,70.57
2019-03-31T08:39:30.799Z,66.40
2019-03-31T08:42:02.705Z,65.90
2019-03-31T08:44:34.295Z,66.20
2019-03-31T08:47:06.646Z,62.77
2019-03-31T08:49:38.394Z,56.57
2019-03-31T08:52:10.067Z,56.07
2019-03-31T08:54:41.708Z,55.60
2019-03-31T08:57:13.276Z,52.20
2019-03-31T08:59:46.308Z,47.27
2019-03-31T09:02:42.646Z,49.47
2019-03-31T09:05:14.303Z,50.03
2019-03-31T09:07:45.907Z,43.97
2019-03-31T09:10:17.787Z,45.60
2019-03-31T09:12:49.345Z,46.67
2019-03-31T09:15:20.981Z,49.43
2019-03-31T09:17:54.254Z,47.73
2019-03-31T09:20:27.195Z,48.93
2019-03-31T09:22:58.832Z,41.67
2019-03-31T09:25:31.113Z,41.00
2019-03-31T09:28:02.762Z,42.17
2019-03-31T09:30:34.299Z,42.37
2019-03-31T09:33:06.004Z,43.40
2019-03-31T09:35:37.525Z,39.73
2019-03-31T09:38:09.875Z,42.57
2019-03-31T09:40:41.394Z,40.00
2019-03-31T09:43:13.018Z,43.07
2019-03-31T09:45:44.513Z,41.57
2019-03-31T09:48:16.077Z,41.57
2019-03-31T09:50:47.621Z,43.87
2019-03-31T09:53:19.156Z,41.73
2019-03-31T09:55:51.367Z,43.73
2019-03-31T09:58:23.278Z,42.90
2019-03-31T10:00:54.992Z,36.67
2019-03-31T10:03:26.534Z,39.77
2019-03-31T10:06:10.045Z,36.70
2019-03-31T10:08:31.557Z,35.23
2019-03-31T10:11:03.215Z,38.30
2019-03-31T10:13:34.887Z,37.97
2019-03-31T10:16:17.505Z,34.23
2019-03-31T10:18:49.594Z,39.03
2019-03-31T10:21:21.251Z,36.60
2019-03-31T10:23:53.278Z,35.30
2019-03-31T10:26:31.764Z,33.37
2019-03-31T10:28:58.474Z,32.43
2019-03-31T10:31:30.005Z,32.97
2019-03-31T10:34:01.963Z,34.63
2019-03-31T10:36:43.802Z,33.63
2019-03-31T10:39:09.300Z,29.13
2019-03-31T10:41:41.000Z,34.17
2019-03-31T10:44:12.553Z,29.63
2019-03-31T10:46:44.538Z,29.97
2019-03-31T10:49:16.067Z,30.30
2019-03-31T10:51:47.607Z,31.17
2019-03-31T10:54:20.313Z,29.30
2019-03-31T10:56:51.949Z,30.87
2019-03-31T10:59:23.460Z,29.40
2019-03-31T11:01:55.135Z,30.43
2019-03-31T11:04:26.735Z,27.77
2019-03-31T11:07:01.672Z,30.53
2019-03-31T11:09:34.357Z,29.20
2019-03-31T11:12:05.987Z,32.13
2019-03-31T11:14:38.297Z,31.50
2019-03-31T11:17:10.236Z,27.70
2019-03-31T11:19:42.300Z,32.07
2019-03-31T11:22:26.901Z,31.37
2019-03-31T11:24:58.535Z,28.90
2019-03-31T11:27:30.899Z,33.10
2019-03-31T11:30:02.511Z,29.17
2019-03-31T11:32:34.231Z,31.87
2019-03-31T11:35:06.033Z,33.90
2019-03-31T11:37:37.695Z,30.00
2019-03-31T11:40:10.022Z,30.77
2019-03-31T11:42:41.737Z,28.13
2019-03-31T11:45:14.835Z,32.13
2019-03-31T11:47:46.801Z,29.37
2019-03-31T11:50:19.016Z,29.63
2019-03-31T11:52:51.250Z,30.33
2019-03-31T11:55:23.342Z,31.83
2019-03-31T11:57:55.009Z,28.87
2019-03-31T12:00:28.627Z,29.80
2019-03-31T12:03:00.436Z,29.30
2019-03-31T12:05:32.057Z,28.30
2019-03-31T12:08:04.146Z,24.90
2019-03-31T12:10:36.254Z,24.73
2019-03-31T12:13:07.809Z,26.23
2019-03-31T12:15:40.940Z,26.03
2019-03-31T12:18:12.747Z,27.63
2019-03-31T12:20:44.875Z,27.10
2019-03-31T12:23:16.435Z,26.90
2019-03-31T12:25:47.946Z,24.10
2019-03-31T12:28:19.552Z,27.70
2019-03-31T12:30:52.113Z,27.30
2019-03-31T12:33:24.443Z,28.37
2019-03-31T12:35:58.395Z,24.00
2019-03-31T12:38:30.008Z,23.40
2019-03-31T12:41:01.656Z,27.87
2019-03-31T12:43:33.454Z,29.27
2019-03-31T12:46:05.356Z,25.23
2019-03-31T12:48:37.326Z,28.37
2019-03-31T12:51:08.834Z,24.03
2019-03-31T12:53:40.377Z,24.97
2019-03-31T12:56:12.463Z,27.63
2019-03-31T12:58:44.068Z,23.87
2019-03-31T13:01:15.703Z,24.33
2019-03-31T13:03:47.582Z,28.40
2019-03-31T13:06:19.186Z,24.77
2019-03-31T13:08:50.902Z,23.53
2019-03-31T13:11:22.940Z,24.53
2019-03-31T13:13:54.702Z,25.03
2019-03-31T13:16:26.651Z,23.17
2019-03-31T13:18:58.531Z,22.67
2019-03-31T13:21:30.074Z,24.23
2019-03-31T13:24:01.638Z,25.57
2019-03-31T13:26:33.310Z,27.03
2019-03-31T13:29:05.268Z,25.70
2019-03-31T13:31:36.838Z,24.67
2019-03-31T13:34:08.587Z,22.00
2019-03-31T13:36:40.506Z,26.00
2019-03-31T13:39:12.157Z,25.43
2019-03-31T13:41:47.039Z,20.50
2019-03-31T13:44:17.413Z,21.30
2019-03-31T13:46:49.367Z,18.90
2019-03-31T13:49:21.321Z,19.23
2019-03-31T13:51:53.204Z,22.97
2019-03-31T13:54:24.738Z,19.40
2019-03-31T13:56:58.285Z,19.97
2019-03-31T13:59:30.048Z,21.33
2019-03-31T14:02:02.331Z,18.77
2019-03-31T14:04:37.021Z,18.57
2019-03-31T14:07:07.330Z,19.00
2019-03-31T14:09:38.849Z,19.93
2019-03-31T14:12:10.730Z,21.73
2019-03-31T14:14:42.394Z,21.03
2019-03-31T14:17:14.334Z,17.60
2019-03-31T14:19:46.014Z,20.67
2019-03-31T14:22:17.603Z,19.17
2019-03-31T14:24:49.162Z,18.17
2019-03-31T14:27:21.108Z,22.73
2019-03-31T14:29:52.744Z,18.60
2019-03-31T14:32:24.294Z,19.50
2019-03-31T14:34:56.591Z,22.70
2019-03-31T14:37:28.281Z,22.07
2019-03-31T14:39:59.941Z,22.50
2019-03-31T14:42:31.466Z,21.30
2019-03-31T14:45:02.987Z,19.47
2019-03-31T14:47:34.567Z,20.23
2019-03-31T14:50:07.013Z,17.90
2019-03-31T14:52:38.557Z,21.13
2019-03-31T14:55:10.180Z,19.80
2019-03-31T14:57:41.678Z,20.70
2019-03-31T15:00:15.248Z,24.10
2019-03-31T15:02:46.671Z,23.17
2019-03-31T15:05:18.159Z,21.17
2019-03-31T15:07:49.785Z,23.40
2019-03-31T15:10:21.773Z,20.33
2019-03-31T15:12:53.355Z,19.30
2019-03-31T15:15:24.881Z,19.97
2019-03-31T15:17:56.396Z,18.43
2019-03-31T15:20:28.043Z,20.53
2019-03-31T15:22:59.996Z,19.57
2019-03-31T15:25:31.516Z,19.73
2019-03-31T15:28:03.740Z,20.07
2019-03-31T15:30:35.358Z,20.40
2019-03-31T15:33:06.855Z,18.40
2019-03-31T15:35:38.814Z,19.37
2019-03-31T15:38:10.317Z,19.73
2019-03-31T15:40:41.975Z,19.33
2019-03-31T15:43:13.611Z,16.17
2019-03-31T15:45:45.143Z,17.47
2019-03-31T15:48:16.793Z,18.07
2019-03-31T15:50:48.354Z,16.17
2019-03-31T15:53:20.271Z,17.53
2019-03-31T15:55:51.811Z,16.90
2019-03-31T15:58:23.374Z,15.57
2019-03-31T16:00:55.271Z,14.73
2019-03-31T16:03:26.958Z,17.77
2019-03-31T16:05:58.503Z,15.20
2019-03-31T16:08:29.934Z,15.80
2019-03-31T16:11:00.895Z,12.10
2019-03-31T16:13:33.510Z,11.27
2019-03-31T16:16:04.433Z,13.67
2019-03-31T16:18:35.484Z,11.97
2019-03-31T16:21:06.593Z,11.23
2019-03-31T16:23:38.674Z,11.93
2019-03-31T16:26:09.724Z,12.20
2019-03-31T16:28:40.818Z,12.77
2019-03-31T16:31:12.247Z,13.00
2019-03-31T16:33:43.669Z,13.10
2019-03-31T16:36:14.602Z,10.70
2019-03-31T16:38:46.034Z,12.43
2019-03-31T16:41:17.184Z,12.97
2019-03-31T16:43:48.604Z,13.33
2019-03-31T16:46:20.003Z,15.47
2019-03-31T16:48:50.964Z,10.23
2019-03-31T16:51:22.390Z,10.90
2019-03-31T16:53:54.112Z,10.00
2019-03-31T16:56:25.379Z,10.87
2019-03-31T16:58:56.761Z,10.70
2019-03-31T17:01:27.762Z,11.03
2019-03-31T17:03:58.753Z,11.60
2019-03-31T17:06:29.868Z,9.53
2019-03-31T17:09:01.710Z,11.80
2019-03-31T17:11:34.902Z,12.53
2019-03-31T17:14:06.189Z,10.37
2019-03-31T17:16:37.248Z,10.30
2019-03-31T17:19:08.185Z,8.37
2019-03-31T17:21:39.259Z,8.87
2019-03-31T17:24:11.730Z,9.47
2019-03-31T17:26:43.113Z,10.07
2019-03-31T17:29:14.149Z,12.13
2019-03-31T17:31:45.258Z,6.77
2019-03-31T17:34:16.618Z,6.97
2019-03-31T17:36:48.369Z,8.27
2019-03-31T17:39:19.726Z,7.30
2019-03-31T17:41:50.745Z,7.57
2019-03-31T17:44:21.787Z,9.33
2019-03-31T17:46:53.133Z,9.03
2019-03-31T17:49:24.115Z,8.77
2019-03-31T17:51:55.136Z,8.50
2019-03-31T17:54:26.227Z,12.87
2019-03-31T17:56:57.247Z,7.80
2019-03-31T17:59:28.322Z,12.90
2019-03-31T18:01:59.689Z,10.83
2019-03-31T18:04:31.130Z,12.70
2019-03-31T18:07:02.178Z,8.97
2019-03-31T18:09:33.220Z,8.83
2019-03-31T18:12:04.188Z,6.80
2019-03-31T18:14:35.097Z,7.50
2019-03-31T18:17:06.102Z,7.90
2019-03-31T18:19:37.204Z,5.97
2019-03-31T18:22:16.305Z,7.77
2019-03-31T18:24:42.420Z,6.57
2019-03-31T18:27:13.550Z,6.53
2019-03-31T18:29:44.524Z,6.70
2019-03-31T18:32:15.864Z,6.30
2019-03-31T18:34:46.906Z,8.87
2019-03-31T18:37:17.971Z,6.33
2019-03-31T18:39:49.008Z,8.03
2019-03-31T18:42:20.358Z,6.80
2019-03-31T18:44:51.384Z,10.93
2019-03-31T18:47:22.810Z,6.87
2019-03-31T18:49:54.414Z,7.63
2019-03-31T18:52:25.517Z,6.40
2019-03-31T18:55:24.381Z,7.93
2019-03-31T18:58:01.745Z,11.57
2019-03-31T19:00:48.781Z,7.63
2019-03-31T19:03:34.905Z,7.53
2019-03-31T19:06:27.736Z,5.87
2019-03-31T19:09:18.142Z,8.07
2019-03-31T19:12:07.107Z,7.80
2019-03-31T19:15:12.344Z,6.30
2019-03-31T19:18:11.790Z,9.23
2019-03-31T19:21:10.810Z,6.37
2019-03-31T19:23:52.434Z,6.73
2019-03-31T19:26:47.298Z,9.47
2019-03-31T19:29:36.706Z,9.30
2019-03-31T19:32:26.726Z,8.37
2019-03-31T19:35:16.071Z,7.30
2019-03-31T19:37:59.937Z,9.13
2019-03-31T19:41:05.380Z,8.00
2019-03-31T19:43:58.855Z,6.67
2019-03-31T19:47:04.255Z,8.80
2019-03-31T19:49:52.470Z,5.27
2019-03-31T19:52:31.737Z,6.40
2019-03-31T19:55:14.483Z,9.00
2019-03-31T19:58:00.465Z,7.40
2019-03-31T20:00:53.485Z,9.83
2019-03-31T20:03:49.330Z,9.07
2019-03-31T20:06:54.810Z,8.97
2019-03-31T20:09:50.991Z,7.73
2019-03-31T20:12:28.344Z,9.47
2019-03-31T20:15:21.589Z,6.07
2019-03-31T20:18:11.649Z,7.97
2019-03-31T20:21:01.690Z,8.30
2019-03-31T20:23:40.453Z,8.40
2019-03-31T20:26:28.722Z,10.57
2019-03-31T20:29:24.920Z,8.70
2019-03-31T20:32:05.361Z,11.37
2019-03-31T20:34:55.752Z,9.57
2019-03-31T20:37:48.777Z,12.23
2019-03-31T20:40:41.798Z,7.87
2019-03-31T20:43:46.898Z,9.30
2019-03-31T20:46:18.167Z,10.53
2019-03-31T20:48:49.940Z,7.93
2019-03-31T20:51:20.960Z,10.43
2019-03-31T20:53:52.048Z,9.83
2019-03-31T20:56:23.055Z,11.03
2019-03-31T20:58:54.106Z,10.50
2019-03-31T21:01:25.163Z,10.57
2019-03-31T21:03:56.291Z,9.27
2019-03-31T21:06:27.794Z,12.03
2019-03-31T21:08:58.939Z,9.33
2019-03-31T21:11:30.383Z,10.27
2019-03-31T21:14:01.426Z,12.13
2019-03-31T21:16:32.769Z,9.83
2019-03-31T21:19:04.002Z,11.60
2019-03-31T21:21:35.407Z,12.27
2019-03-31T21:24:06.442Z,12.10
2019-03-31T21:26:37.532Z,9.07
2019-03-31T21:29:08.526Z,11.43
2019-03-31T21:31:39.502Z,13.87
2019-03-31T21:34:10.880Z,11.10
2019-03-31T21:36:41.832Z,10.03
2019-03-31T21:39:13.233Z,10.57
2019-03-31T21:41:44.163Z,10.13
2019-03-31T21:44:15.241Z,13.30
2019-03-31T21:46:46.282Z,8.63
2019-03-31T21:49:18.145Z,8.30
2019-03-31T21:51:49.482Z,9.30
2019-03-31T21:54:20.855Z,7.97
2019-03-31T21:56:51.972Z,8.23
2019-03-31T21:59:22.955Z,9.73
2019-03-31T22:01:53.945Z,12.27
2019-03-31T22:04:25.381Z,8.47
2019-03-31T22:06:56.709Z,9.53
2019-03-31T22:09:27.671Z,9.93
2019-03-31T22:11:59.143Z,8.40
2019-03-31T22:14:30.198Z,10.93
2019-03-31T22:17:01.557Z,10.53
2019-03-31T22:19:32.537Z,10.10
2019-03-31T22:22:03.503Z,11.87
2019-03-31T22:24:34.513Z,11.13
2019-03-31T22:27:05.621Z,10.40
2019-03-31T22:29:36.626Z,7.50
2019-03-31T22:32:08.447Z,7.90
2019-03-31T22:34:39.525Z,11.17
2019-03-31T22:37:10.470Z,8.93
2019-03-31T22:39:41.825Z,12.07
2019-03-31T22:42:13.102Z,8.17
2019-03-31T22:44:44.193Z,12.70
2019-03-31T22:47:15.482Z,9.90
2019-03-31T22:49:46.569Z,12.87
2019-03-31T22:52:17.571Z,11.77
2019-03-31T22:54:48.605Z,10.33
2019-03-31T22:57:19.557Z,13.73
2019-03-31T22:59:50.610Z,10.40
2019-03-31T23:02:22.014Z,10.43
2019-03-31T23:04:53.007Z,12.10
2019-03-31T23:07:24.932Z,10.97
2019-03-31T23:09:56.427Z,12.57
2019-03-31T23:12:27.874Z,13.27
2019-03-31T23:14:59.018Z,10.67
2019-03-31T23:17:30.330Z,13.10
2019-03-31T23:20:01.331Z,8.97
2019-03-31T23:22:32.790Z,8.97
2019-03-31T23:25:04.610Z,11.27
2019-03-31T23:27:36.062Z,9.43
2019-03-31T23:30:08.743Z,9.43
2019-03-31T23:32:39.800Z,10.53
2019-03-31T23:35:11.231Z,5.40
2019-03-31T23:37:42.618Z,6.90
2019-03-31T23:40:13.628Z,10.33
2019-03-31T23:42:44.949Z,7.60
2019-03-31T23:45:15.942Z,10.23
2019-03-31T23:47:47.254Z,13.33
2019-03-31T23:50:18.519Z,9.17
2019-03-31T23:52:49.923Z,12.23
2019-03-31T23:55:20.984Z,7.37
2019-03-31T23:57:52.021Z,9.83
